Terminal Aerodrome Forecast
Issued by NWS

Home | Current Version | Previous Version | Text Only | Print | Product List | Glossary On
Versions: 1 2 3 4 5 6 7 8 9 10 11 12 13 14 15
000
FTAK31 PAJN 201100
TAFAWG
TAF
PAWG 201120Z 2012/2112 12015G20KT 6SM -RA BR BKN035 OVC050
     FM201700 12012KT P6SM -SHRA BKN025 OVC050
     FM210200 11010KT P6SM VCSH SCT025 BKN060
      AMD LTD TO CLD VIS AND WIND 2012/2015=

USA.gov is the U.S. government's official web portal to all federal, state and local government web resources and services.